Time;durP1;ratioP1;P1;durP2;ratioP2;P2;SDS_P1;SDS_P2;PMS_P1;PMS_P2;Temp;Humidity;BMP_temperature;BMP_pressure;BME280_temperature;BME280_humidity;BME280_pressure;Samples;Min_cycle;Max_cycle;Signal;HPM_P1;HPM_P2
2022/09/16 00:00:13;;;;;;;18.80;4.32;;;;;;;11.42;100.00;100949.06;5083807;28;20028;-64
2022/09/16 00:02:38;;;;;;;16.95;4.40;;;;;;;11.42;100.00;100950.84;5086611;28;20027;-65
2022/09/16 00:05:04;;;;;;;19.40;4.32;;;;;;;11.42;100.00;100953.47;5083946;28;20032;-64
2022/09/16 00:07:30;;;;;;;16.33;4.20;;;;;;;11.36;100.00;100949.06;5085489;28;20035;-63
2022/09/16 00:09:55;;;;;;;17.60;4.32;;;;;;;11.30;100.00;100946.38;5080278;28;20017;-64
2022/09/16 00:12:20;;;;;;;18.38;4.20;;;;;;;11.31;100.00;100950.78;5086725;28;20035;-63
2022/09/16 00:14:46;;;;;;;16.60;3.90;;;;;;;11.32;100.00;100937.56;5083740;28;20031;-65
2022/09/16 00:17:12;;;;;;;14.18;4.05;;;;;;;11.33;100.00;100941.97;5084593;28;20482;-64
2022/09/16 00:19:37;;;;;;;16.00;4.20;;;;;;;11.34;100.00;100942.84;5084589;28;20424;-66
2022/09/16 00:22:02;;;;;;;16.92;4.18;;;;;;;11.35;100.00;100934.03;5084181;28;20032;-64
2022/09/16 00:24:28;;;;;;;17.85;4.10;;;;;;;11.37;100.00;100934.03;5086167;28;20036;-64
2022/09/16 00:26:53;;;;;;;16.88;3.97;;;;;;;11.39;100.00;100943.75;5083281;28;20150;-63
2022/09/16 00:29:19;;;;;;;17.13;4.30;;;;;;;11.40;100.00;100936.69;5086012;28;20129;-65
2022/09/16 00:31:44;;;;;;;17.73;3.90;;;;;;;11.37;100.00;100940.22;5083497;28;20028;-65
2022/09/16 00:34:09;;;;;;;15.35;3.90;;;;;;;11.34;100.00;100935.81;5084556;28;20072;-66
2022/09/16 00:36:35;;;;;;;16.42;3.92;;;;;;;11.32;100.00;100934.91;5085079;28;20027;-63
2022/09/16 00:39:00;;;;;;;18.02;4.32;;;;;;;11.32;100.00;100929.63;5083167;28;20027;-63
2022/09/16 00:41:32;;;;;;;16.17;4.10;;;;;;;11.26;100.00;100936.69;5085889;28;20034;-62
2022/09/16 00:43:58;;;;;;;17.92;4.20;;;;;;;11.19;100.00;100934.88;5082932;28;20028;-63
2022/09/16 00:46:50;;;;;;;17.30;4.57;;;;;;;11.09;100.00;100929.53;5085834;28;20103;-63
2022/09/16 00:49:24;;;;;;;19.88;4.78;;;;;;;10.96;100.00;100925.09;5082006;28;20055;-65
2022/09/16 00:51:55;;;;;;;16.63;4.53;;;;;;;10.85;100.00;100924.16;5082154;28;20056;-64
2022/09/16 00:54:20;;;;;;;19.23;4.80;;;;;;;10.76;100.00;100925.91;5085961;28;20035;-63
2022/09/16 00:56:51;;;;;;;17.75;4.78;;;;;;;10.68;100.00;100922.31;5083143;28;20029;-64
2022/09/16 00:59:23;;;;;;;18.45;4.70;;;;;;;10.66;100.00;100923.19;5085238;28;20520;-63
2022/09/16 01:01:50;;;;;;;20.73;5.13;;;;;;;10.61;100.00;100917.88;5082615;28;20021;-63
2022/09/16 01:04:39;;;;;;;20.20;5.20;;;;;;;10.54;100.00;100924.00;5085217;28;20032;-65
2022/09/16 01:07:05;;;;;;;16.13;4.88;;;;;;;10.53;100.00;100923.13;5083476;28;20063;-65
2022/09/16 01:09:30;;;;;;;18.25;5.15;;;;;;;10.46;100.00;100916.03;5084894;28;20048;-65
2022/09/16 01:11:56;;;;;;;17.58;4.82;;;;;;;10.33;100.00;100920.31;5081814;28;20020;-63
2022/09/16 01:17:14;;;;;;;18.95;5.00;;;;;;;10.20;100.00;100919.34;5083772;28;20043;-64
2022/09/16 01:20:00;;;;;;;19.85;5.30;;;;;;;10.17;100.00;100915.81;5083415;28;20035;-63
2022/09/16 01:22:26;;;;;;;19.13;5.35;;;;;;;10.10;100.00;100920.16;5081742;28;20024;-64
2022/09/16 01:25:21;;;;;;;20.73;5.32;;;;;;;10.02;100.00;100924.50;5081881;28;20051;-64
2022/09/16 01:28:24;;;;;;;20.10;5.65;;;;;;;9.97;100.00;100915.66;5084105;28;20028;-63
2022/09/16 01:31:05;;;;;;;21.17;5.60;;;;;;;9.95;100.00;100913.00;5019853;28;20045;-64
2022/09/16 01:33:43;;;;;;;18.27;5.72;;;;;;;9.94;100.00;100919.16;5020071;28;20045;-65
2022/09/16 01:36:29;;;;;;;19.42;5.40;;;;;;;9.92;100.00;100918.28;5021078;28;20029;-65
2022/09/16 01:39:11;;;;;;;19.98;6.03;;;;;;;9.85;100.00;100916.44;5023268;28;20100;-66
2022/09/16 01:41:50;;;;;;;18.52;5.50;;;;;;;9.85;100.00;100919.09;5022811;28;20056;-64
2022/09/16 01:44:25;;;;;;;19.98;5.75;;;;;;;9.76;100.00;100918.13;5019985;28;20030;-65
2022/09/16 01:47:12;;;;;;;20.17;5.72;;;;;;;9.69;100.00;100907.50;5022702;28;20048;-66
2022/09/16 01:50:02;;;;;;;20.40;5.90;;;;;;;9.65;100.00;100914.50;5022662;28;20038;-66
2022/09/16 01:52:36;;;;;;;19.25;5.65;;;;;;;9.62;100.00;100914.47;5019159;28;20041;-66
2022/09/16 01:55:06;;;;;;;18.58;5.60;;;;;;;9.59;100.00;100909.16;5021794;28;20102;-65
2022/09/16 01:57:51;;;;;;;20.13;5.75;;;;;;;9.59;100.00;100914.44;5020010;28;20050;-65
2022/09/16 02:00:17;;;;;;;19.83;5.72;;;;;;;9.56;100.00;100917.94;5019945;28;20037;-67
2022/09/16 02:02:52;;;;;;;19.27;5.57;;;;;;;9.53;100.00;100920.53;5021190;28;20026;-65
2022/09/16 02:05:25;;;;;;;18.77;5.57;;;;;;;9.47;100.00;100924.91;5019450;28;20037;-66
2022/09/16 02:07:58;;;;;;;19.40;5.82;;;;;;;9.50;100.00;100930.19;5058609;28;20035;-66
2022/09/16 02:10:26;;;;;;;;;;;;;;;9.54;100.00;100926.72;5081759;28;20032;-66
2022/09/16 02:12:54;;;;;;;17.88;5.18;;;;;;;9.61;100.00;100928.56;5084595;28;19912;-64
2022/09/16 02:15:24;;;;;;;19.33;5.45;;;;;;;9.67;100.00;100925.06;5081546;28;20020;-66
2022/09/16 02:18:03;;;;;;;19.38;5.25;;;;;;;9.66;100.00;100926.84;5083787;28;20046;-64
2022/09/16 02:20:31;;;;;;;18.85;5.13;;;;;;;9.65;100.00;100930.34;5084121;28;20038;-65
2022/09/16 02:23:14;;;;;;;17.67;5.10;;;;;;;9.71;100.00;100930.41;5080765;28;20024;-66
2022/09/16 02:25:43;;;;;;;17.63;5.20;;;;;;;9.76;100.00;100923.41;5082777;28;20040;-65
2022/09/16 02:28:12;;;;;;;19.13;5.22;;;;;;;9.83;100.00;100934.00;5082593;28;20051;-66
2022/09/16 02:30:42;;;;;;;18.98;5.40;;;;;;;9.84;100.00;100930.50;5082115;28;20360;-63
2022/09/16 02:33:12;;;;;;;18.05;5.15;;;;;;;9.86;100.00;100924.38;5082693;28;20126;-65
2022/09/16 02:35:40;;;;;;;18.98;5.25;;;;;;;9.89;100.00;100924.41;5080839;28;20544;-65
2022/09/16 02:38:11;;;;;;;17.88;4.97;;;;;;;9.97;100.00;100932.38;5083358;28;20024;-64
2022/09/16 02:40:51;;;;;;;19.93;5.17;;;;;;;9.99;100.00;100925.38;5084664;28;20161;-65
2022/09/16 02:43:17;;;;;;;19.50;5.05;;;;;;;10.00;100.00;100921.84;5085527;28;20032;-66
2022/09/16 02:46:06;;;;;;;19.85;5.20;;;;;;;10.04;100.00;100914.84;5087000;28;20036;-66
2022/09/16 02:48:52;;;;;;;17.95;4.82;;;;;;;10.05;100.00;100921.91;5022532;28;20072;-67
2022/09/16 02:51:29;;;;;;;19.83;4.80;;;;;;;10.02;100.00;100925.38;5025350;28;20095;-66
2022/09/16 02:54:01;;;;;;;18.05;4.85;;;;;;;9.93;100.00;100925.28;5026139;28;20476;-67
2022/09/16 02:56:31;;;;;;;17.52;4.82;;;;;;;9.91;100.00;100929.69;5025849;28;20121;-66
2022/09/16 02:58:56;;;;;;;20.02;4.95;;;;;;;9.90;100.00;100930.56;5022623;28;20029;-66
2022/09/16 03:01:23;;;;;;;17.45;4.80;;;;;;;9.96;100.00;100920.06;5025845;28;20025;-66
2022/09/16 03:03:50;;;;;;;20.38;5.10;;;;;;;9.99;100.00;100920.09;5022783;28;20384;-67
2022/09/16 03:06:26;;;;;;;17.05;4.70;;;;;;;10.05;100.00;100920.13;5024883;28;20048;-66
2022/09/16 03:08:54;;;;;;;19.27;5.00;;;;;;;10.09;100.00;100921.94;5005980;28;20377;-67
2022/09/16 03:11:25;;;;;;;18.20;4.50;;;;;;;10.15;100.00;100920.19;5025232;28;20080;-67
2022/09/16 03:14:00;;;;;;;15.82;4.47;;;;;;;10.17;100.00;100918.47;5022193;28;20058;-67
2022/09/16 03:16:45;;;;;;;17.55;4.22;;;;;;;10.19;100.00;100908.78;5022306;28;20030;-66
2022/09/16 03:19:28;;;;;;;19.00;4.60;;;;;;;10.28;100.00;100903.53;5023470;28;20575;-66
2022/09/16 03:22:05;;;;;;;;;;;;;;;10.32;100.00;100907.97;5026485;28;20145;-67
2022/09/16 03:25:14;;;;;;;17.15;4.45;;;;;;;10.32;100.00;100909.75;5028378;28;20435;-67
2022/09/16 03:27:50;;;;;;;18.50;4.30;;;;;;;10.30;100.00;100909.75;5021835;28;20041;-66
2022/09/16 03:30:16;;;;;;;16.85;4.25;;;;;;;10.30;100.00;100910.59;5024280;28;20042;-66
2022/09/16 03:32:47;;;;;;;18.08;4.40;;;;;;;10.25;100.00;100922.00;5023243;28;20038;-67
2022/09/16 03:35:20;;;;;;;16.80;4.70;;;;;;;10.20;100.00;100923.75;5023759;28;20029;-67
2022/09/16 03:37:46;;;;;;;17.15;4.20;;;;;;;10.08;100.00;100914.88;5022494;28;20395;-67
2022/09/16 03:40:16;;;;;;;18.50;4.40;;;;;;;10.02;100.00;100912.19;5023782;28;20060;-67
2022/09/16 03:42:42;;;;;;;19.40;4.30;;;;;;;9.97;100.00;100905.97;5023184;28;20083;-67
2022/09/16 03:45:14;;;;;;;19.67;4.70;;;;;;;9.94;100.00;100912.09;5023011;28;20046;-67
2022/09/16 03:47:39;;;;;;;16.10;4.35;;;;;;;9.88;100.00;100908.53;5023397;28;20145;-65
2022/09/16 03:50:05;;;;;;;17.98;4.50;;;;;;;9.83;100.00;100910.25;5022305;28;20112;-67
2022/09/16 03:52:30;;;;;;;17.98;4.50;;;;;;;9.82;100.00;100911.16;5024114;28;20117;-67
2022/09/16 03:54:56;;;;;;;17.30;4.60;;;;;;;9.85;100.00;100904.13;5021680;28;20018;-67
2022/09/16 03:57:21;;;;;;;17.73;4.85;;;;;;;9.88;100.00;100912.06;5024545;28;20112;-66
2022/09/16 03:59:46;;;;;;;18.85;5.10;;;;;;;9.90;100.00;100912.97;5022204;28;20378;-66
2022/09/16 04:02:11;;;;;;;17.00;4.82;;;;;;;9.92;100.00;100915.63;5023440;28;20092;-66
2022/09/16 04:04:37;;;;;;;16.58;4.53;;;;;;;9.96;100.00;100917.44;5055212;28;20040;-66
2022/09/16 04:07:02;;;;;;;19.42;4.70;;;;;;;9.90;100.00;100912.97;5086023;28;20024;-65
2022/09/16 04:09:28;;;;;;;19.65;4.68;;;;;;;9.88;100.00;100913.81;5083383;28;20021;-66
2022/09/16 04:11:53;;;;;;;19.48;4.80;;;;;;;9.88;100.00;100905.91;5083006;28;20035;-67
2022/09/16 04:14:19;;;;;;;19.95;4.68;;;;;;;9.88;100.00;100911.19;5085865;28;20020;-67
2022/09/16 04:16:44;;;;;;;17.65;4.50;;;;;;;9.86;100.00;100908.53;5084379;28;20102;-67
2022/09/16 04:19:12;;;;;;;18.85;4.65;;;;;;;9.88;100.00;100912.06;5084612;28;20027;-66
2022/09/16 04:21:38;;;;;;;20.30;4.60;;;;;;;9.90;100.00;100922.63;5085366;28;20054;-67
2022/09/16 04:24:04;;;;;;;16.95;4.40;;;;;;;9.91;100.00;100914.72;5083621;28;20025;-67
2022/09/16 04:26:29;;;;;;;19.20;4.60;;;;;;;9.95;100.00;100920.94;5086193;28;20038;-67
2022/09/16 04:28:54;;;;;;;16.35;4.28;;;;;;;9.98;100.00;100920.94;5082760;28;20017;-67
2022/09/16 04:31:20;;;;;;;19.25;4.90;;;;;;;9.99;100.00;100920.09;5085972;28;20024;-67
2022/09/16 04:33:45;;;;;;;18.33;4.70;;;;;;;10.01;100.00;100928.91;5083499;28;20048;-68
2022/09/16 04:36:14;;;;;;;18.10;4.57;;;;;;;10.04;100.00;100931.56;5084458;28;20032;-67
2022/09/16 04:38:41;;;;;;;19.00;4.63;;;;;;;10.11;100.00;100936.03;5084648;28;20465;-67
2022/09/16 04:41:12;;;;;;;17.45;4.60;;;;;;;10.17;100.00;100931.66;5083632;28;20023;-67
2022/09/16 04:43:38;;;;;;;18.25;4.30;;;;;;;10.21;100.00;100930.81;5084621;28;20036;-67
2022/09/16 04:46:04;;;;;;;16.98;4.32;;;;;;;10.29;100.00;100927.38;5083543;28;20020;-67
2022/09/16 04:48:30;;;;;;;14.15;3.70;;;;;;;10.32;100.00;100917.69;5085698;28;20020;-68
2022/09/16 04:51:10;;;;;;;14.98;3.53;;;;;;;10.29;100.00;100907.97;5082599;28;20077;-67
2022/09/16 04:53:38;;;;;;;14.88;3.50;;;;;;;10.25;100.00;100911.44;5083588;28;20119;-67
2022/09/16 04:56:08;;;;;;;15.50;3.42;;;;;;;10.23;100.00;100898.22;5085312;28;20521;-66
2022/09/16 04:58:35;;;;;;;17.92;3.45;;;;;;;10.23;100.00;100916.72;5083027;28;20120;-66
2022/09/16 05:01:11;;;;;;;14.52;3.70;;;;;;;10.16;100.00;100900.84;5085625;28;20054;-65
2022/09/16 05:03:40;;;;;;;18.42;3.80;;;;;;;10.09;100.00;100906.06;5082703;28;20035;-67
2022/09/16 05:06:11;;;;;;;13.23;3.40;;;;;;;10.02;100.00;100909.53;5084462;28;20095;-66
2022/09/16 05:08:37;;;;;;;13.57;3.33;;;;;;;9.98;100.00;100912.16;5083015;28;20097;-66
2022/09/16 05:11:14;;;;;;;14.05;2.97;;;;;;;9.96;100.00;100912.16;5085348;28;20526;-64
2022/09/16 05:13:40;;;;;;;11.85;3.10;;;;;;;9.94;100.00;100916.50;5084401;28;20025;-67
2022/09/16 05:16:07;;;;;;;13.05;3.13;;;;;;;9.91;100.00;100916.50;5084357;28;20024;-65
2022/09/16 05:18:34;;;;;;;11.20;2.97;;;;;;;9.87;100.00;100919.97;5082123;28;20077;-66
2022/09/16 05:21:00;;;;;;;14.25;2.88;;;;;;;9.88;100.00;100925.25;5085265;28;20107;-66
2022/09/16 05:23:26;;;;;;;11.57;3.10;;;;;;;9.92;100.00;100928.84;5081979;28;20098;-66
2022/09/16 05:25:53;;;;;;;11.02;3.00;;;;;;;9.99;100.00;100925.38;5084770;28;20051;-66
2022/09/16 05:28:18;;;;;;;14.38;3.28;;;;;;;10.09;100.00;100926.31;5082601;28;20031;-66
2022/09/16 05:30:44;;;;;;;15.55;3.38;;;;;;;10.13;100.00;100930.75;5083636;28;20017;-67
2022/09/16 05:33:09;;;;;;;13.90;3.30;;;;;;;10.20;100.00;100924.63;5080282;28;20047;-67
2022/09/16 05:35:34;;;;;;;15.70;3.38;;;;;;;10.25;100.00;100922.91;5085513;28;20043;-68
2022/09/16 05:37:59;;;;;;;12.93;3.22;;;;;;;10.30;100.00;100925.59;5083681;28;20025;-68
2022/09/16 05:40:26;;;;;;;13.73;3.33;;;;;;;10.33;100.00;100924.75;5087310;28;20074;-69
2022/09/16 05:42:51;;;;;;;13.10;3.22;;;;;;;10.35;100.00;100921.25;5082416;28;20070;-68
2022/09/16 05:45:17;;;;;;;16.73;3.22;;;;;;;10.38;100.00;100933.59;5080949;28;20495;-64
2022/09/16 05:47:46;;;;;;;15.38;3.45;;;;;;;10.42;100.00;100928.34;5074845;28;20075;-72
2022/09/16 05:50:12;;;;;;;13.73;3.28;;;;;;;10.44;100.00;100923.97;5074761;28;20103;-70
2022/09/16 05:52:37;;;;;;;13.70;3.20;;;;;;;10.48;100.00;100929.25;5075686;28;20120;-69
2022/09/16 05:55:03;;;;;;;14.27;3.22;;;;;;;10.51;100.00;100929.28;5075975;28;20521;-69
2022/09/16 05:57:28;;;;;;;13.98;3.13;;;;;;;10.53;100.00;100925.78;5075973;28;20058;-64
2022/09/16 05:59:53;;;;;;;11.50;3.10;;;;;;;10.56;100.00;100932.84;5079949;28;20796;-63
2022/09/16 06:02:18;;;;;;;15.55;3.20;;;;;;;10.58;100.00;100923.16;5075833;28;20067;-63
2022/09/16 06:04:44;;;;;;;15.18;3.10;;;;;;;10.56;100.00;100922.28;5060933;28;20028;-64
2022/09/16 06:07:09;;;;;;;16.80;3.25;;;;;;;10.56;100.00;100922.28;5074731;28;20108;-63
2022/09/16 06:09:35;;;;;;;14.07;2.92;;;;;;;10.57;100.00;100935.50;5083708;28;20024;-65
2022/09/16 06:12:01;;;;;;;13.00;2.90;;;;;;;10.55;100.00;100931.94;5084676;28;20032;-63
2022/09/16 06:14:27;;;;;;;12.80;3.10;;;;;;;10.53;100.00;100930.16;5084996;28;20073;-65
2022/09/16 06:16:52;;;;;;;13.00;3.05;;;;;;;10.54;100.00;100934.56;5084702;28;20131;-64
2022/09/16 06:19:17;;;;;;;9.60;2.67;;;;;;;10.62;100.00;100938.16;5082489;28;20039;-65
2022/09/16 06:21:44;;;;;;;13.52;2.88;;;;;;;10.71;100.00;100943.47;5081108;28;20024;-65
2022/09/16 06:24:10;;;;;;;14.50;2.95;;;;;;;10.72;100.00;100937.34;5086214;28;20021;-65
2022/09/16 06:26:38;;;;;;;13.75;2.80;;;;;;;10.72;100.00;100942.63;5085347;28;20051;-64
2022/09/16 06:29:05;;;;;;;10.95;2.70;;;;;;;10.65;100.00;100948.75;5085760;28;20039;-67
2022/09/16 06:31:31;;;;;;;8.82;2.67;;;;;;;10.64;100.00;100953.16;5085635;28;20035;-65
2022/09/16 06:33:56;;;;;;;12.93;2.80;;;;;;;10.69;100.00;100945.25;5085299;28;20078;-65
2022/09/16 06:36:27;;;;;;;9.07;2.47;;;;;;;10.86;100.00;100947.09;5085338;28;20509;-65
2022/09/16 06:38:53;;;;;;;11.13;2.53;;;;;;;10.98;100.00;100957.75;5074248;28;20032;-64
2022/09/16 06:41:19;;;;;;;11.43;2.45;;;;;;;11.09;100.00;100955.13;5079961;28;20387;-65
2022/09/16 06:43:46;;;;;;;12.07;2.65;;;;;;;11.18;100.00;100964.88;5084606;28;20060;-64
2022/09/16 06:46:16;;;;;;;12.43;2.72;;;;;;;11.07;100.00;100960.41;5085682;28;20020;-63
2022/09/16 06:48:44;;;;;;;10.75;2.80;;;;;;;11.14;100.00;100969.28;5080348;28;20028;-65
2022/09/16 06:51:15;;;;;;;9.38;2.60;;;;;;;11.05;100.00;100967.44;5077093;28;20782;-65
2022/09/16 06:53:41;;;;;;;12.18;2.67;;;;;;;11.07;100.00;100968.34;5076506;28;20032;-63
2022/09/16 06:56:11;;;;;;;10.57;2.60;;;;;;;10.95;100.00;100963.00;5074312;28;20048;-64
2022/09/16 06:58:38;;;;;;;11.15;2.70;;;;;;;10.90;100.00;100964.75;5076652;28;20067;-65
2022/09/16 07:01:09;;;;;;;12.38;2.90;;;;;;;10.83;100.00;100966.47;5074260;28;20031;-66
2022/09/16 07:03:39;;;;;;;8.88;2.90;;;;;;;10.81;100.00;100963.81;5077095;28;20035;-65
2022/09/16 07:06:04;;;;;;;12.82;2.90;;;;;;;10.78;100.00;100952.34;5073960;28;20024;-66
2022/09/16 07:08:31;;;;;;;11.68;2.97;;;;;;;10.77;100.00;100958.50;5079086;28;20021;-64
2022/09/16 07:10:57;;;;;;;13.48;3.00;;;;;;;10.90;100.00;100960.31;5076603;28;20028;-63
2022/09/16 07:13:22;;;;;;;12.90;3.03;;;;;;;10.92;100.00;100957.69;5076292;28;20036;-64
2022/09/16 07:15:47;;;;;;;8.93;3.10;;;;;;;10.92;100.00;100958.59;5085212;28;20469;-68
2022/09/16 07:18:13;;;;;;;13.23;3.00;;;;;;;10.97;100.00;100951.53;5087549;28;20035;-65
2022/09/16 07:20:38;;;;;;;12.30;3.10;;;;;;;11.05;100.00;100959.50;5082084;28;20040;-65
2022/09/16 07:23:03;;;;;;;14.63;3.15;;;;;;;11.14;100.00;100967.50;5084876;28;20115;-65
2022/09/16 07:25:28;;;;;;;14.10;3.28;;;;;;;11.32;100.00;100968.44;5086991;28;20479;-65
2022/09/16 07:27:54;;;;;;;12.52;2.92;;;;;;;11.71;100.00;100965.88;5089695;28;20024;-65
2022/09/16 07:30:19;;;;;;;12.80;2.90;;;;;;;11.96;100.00;100966.84;5086711;28;20021;-67
2022/09/16 07:32:44;;;;;;;10.52;2.80;;;;;;;12.21;100.00;100973.88;5087740;28;20139;-64
2022/09/16 07:35:10;;;;;;;14.80;3.05;;;;;;;12.41;100.00;100983.63;5085731;28;20085;-65
2022/09/16 07:37:35;;;;;;;9.88;2.72;;;;;;;12.42;100.00;100976.53;5089193;28;20466;-64
2022/09/16 07:40:01;;;;;;;9.90;2.90;;;;;;;12.43;100.00;100971.22;5086904;28;20036;-63
2022/09/16 07:42:28;;;;;;;9.70;2.60;;;;;;;12.36;100.00;100988.91;5086994;28;20090;-64
2022/09/16 07:44:53;;;;;;;10.73;2.75;;;;;;;12.40;100.00;100984.47;5083560;28;20541;-63
2022/09/16 07:47:18;;;;;;;11.52;2.70;;;;;;;12.36;100.00;100983.63;5090270;28;20119;-63
2022/09/16 07:49:44;;;;;;;14.10;3.00;;;;;;;12.19;100.00;100980.97;5085892;28;20028;-64
2022/09/16 07:52:09;;;;;;;17.13;3.50;;;;;;;11.89;100.00;100981.81;5086982;28;20027;-64
2022/09/16 07:54:35;;;;;;;15.05;3.47;;;;;;;11.67;100.00;100975.59;5089455;28;20382;-64
2022/09/16 07:57:00;;;;;;;13.15;3.70;;;;;;;11.55;100.00;100980.84;5087043;28;20031;-67
2022/09/16 07:59:25;;;;;;;14.80;3.72;;;;;;;11.32;100.00;100976.38;5088080;28;20024;-66
2022/09/16 08:01:51;;;;;;;12.88;3.75;;;;;;;11.27;100.00;100986.06;5086857;28;20105;-67
2022/09/16 08:04:18;;;;;;;13.18;4.18;;;;;;;11.27;100.00;100986.06;5086323;28;20032;-65
2022/09/16 08:06:43;;;;;;;15.77;4.43;;;;;;;11.40;100.00;100994.94;5089672;28;20024;-66
2022/09/16 08:09:09;;;;;;;16.75;4.35;;;;;;;11.40;100.00;100995.84;5086182;28;20085;-64
2022/09/16 08:11:34;;;;;;;15.93;4.57;;;;;;;11.42;100.00;100994.06;5084194;28;20074;-67
2022/09/16 08:14:00;;;;;;;15.00;4.18;;;;;;;11.49;100.00;100993.19;5086269;28;20134;-67
2022/09/16 08:16:26;;;;;;;14.15;4.40;;;;;;;11.50;100.00;100999.38;5083377;28;20478;-65
2022/09/16 08:18:54;;;;;;;15.70;4.25;;;;;;;11.60;100.00;101000.28;5086774;28;20028;-66
2022/09/16 08:21:25;;;;;;;16.00;4.43;;;;;;;11.68;100.00;100987.97;5080464;28;20111;-68
2022/09/16 08:23:51;;;;;;;14.23;4.32;;;;;;;11.95;100.00;100996.84;5085562;28;20073;-67
2022/09/16 08:26:17;;;;;;;16.27;4.60;;;;;;;12.23;100.00;100997.75;5085154;28;20020;-66
2022/09/16 08:28:44;;;;;;;14.93;3.90;;;;;;;12.52;100.00;101003.06;5083841;28;20030;-65
2022/09/16 08:31:10;;;;;;;15.77;3.85;;;;;;;12.91;100.00;101001.19;5085903;28;20375;-67
2022/09/16 08:33:38;;;;;;;15.52;3.80;;;;;;;12.95;100.00;101006.50;5080608;28;20076;-67
2022/09/16 08:36:07;;;;;;;14.90;4.50;;;;;;;12.84;100.00;101003.84;5081064;28;20031;-65
2022/09/16 08:38:34;;;;;;;16.00;4.03;;;;;;;13.01;100.00;101004.69;5079979;28;20139;-67
2022/09/16 08:41:22;;;;;;;13.30;3.50;;;;;;;13.23;100.00;101001.97;5079352;28;20073;-68
2022/09/16 08:44:00;;;;;;;12.80;3.42;;;;;;;13.39;100.00;101001.03;5083547;28;20479;-68
2022/09/16 08:46:30;;;;;;;15.38;3.70;;;;;;;14.03;100.00;100996.22;5082946;28;20074;-69
2022/09/16 08:49:05;;;;;;;12.90;3.53;;;;;;;14.67;100.00;101007.22;5083912;28;20126;-69
2022/09/16 08:51:31;;;;;;;11.73;2.83;;;;;;;15.01;100.00;101001.53;5085302;28;20107;-68
2022/09/16 08:54:02;;;;;;;11.38;2.60;;;;;;;15.31;100.00;101000.28;5085393;28;20111;-69
2022/09/16 08:56:31;;;;;;;11.63;2.60;;;;;;;15.90;100.00;101004.84;5083217;28;20111;-68
2022/09/16 08:59:00;;;;;;;12.80;2.80;;;;;;;16.27;100.00;101014.91;5084021;28;20032;-68
2022/09/16 09:01:34;;;;;;;12.80;2.60;;;;;;;16.30;100.00;100998.84;5085540;28;20108;-68
2022/09/16 09:04:01;;;;;;;12.73;2.88;;;;;;;16.31;100.00;101005.97;5083697;28;20032;-68
2022/09/16 09:06:38;;;;;;;12.00;2.42;;;;;;;15.63;100.00;101006.97;5083917;28;20100;-68
2022/09/16 09:09:22;;;;;;;9.65;2.17;;;;;;;16.25;100.00;101005.19;5082860;28;20020;-68
2022/09/16 09:12:07;;;;;;;10.60;2.20;;;;;;;16.80;100.00;101000.66;5085134;28;20048;-69
2022/09/16 09:14:52;;;;;;;11.77;2.38;;;;;;;17.67;100.00;101003.31;5081939;28;20123;-68
2022/09/16 09:17:35;;;;;;;11.52;2.20;;;;;;;17.99;100.00;101008.88;5083985;28;20029;-68
2022/09/16 09:20:06;;;;;;;9.75;2.30;;;;;;;17.58;100.00;101004.41;5082050;28;20032;-68
2022/09/16 09:22:41;;;;;;;9.63;2.20;;;;;;;16.79;100.00;101001.56;5082021;28;20047;-68
2022/09/16 09:25:38;;;;;;;10.85;2.40;;;;;;;16.05;100.00;101003.72;5082206;28;20486;-68
2022/09/16 09:28:34;;;;;;;10.25;2.40;;;;;;;15.72;100.00;101008.63;5081954;28;20360;-67
2022/09/16 09:31:17;;;;;;;9.57;2.15;;;;;;;15.48;100.00;101007.19;5081881;28;20028;-65
2022/09/16 09:33:49;;;;;;;;;;;;;;;15.72;100.00;101013.06;5082880;28;20044;-65
2022/09/16 09:36:34;;;;;;;7.78;1.88;;;;;;;15.81;100.00;101004.97;5082291;28;20031;-66
2022/09/16 09:39:11;;;;;;;9.05;2.20;;;;;;;16.94;100.00;101006.63;5083014;28;20105;-66
2022/09/16 09:41:52;;;;;;;7.97;2.00;;;;;;;18.63;100.00;100998.34;5081943;28;20470;-65
2022/09/16 09:44:20;;;;;;;9.85;2.10;;;;;;;19.57;100.00;101000.16;5080906;28;20166;-65
2022/09/16 09:46:51;;;;;;;10.90;2.40;;;;;;;18.41;100.00;101004.25;5081208;28;20109;-67
2022/09/16 09:49:45;;;;;;;9.18;2.33;;;;;;;17.37;100.00;101003.09;5080827;28;20047;-67
2022/09/16 09:52:25;;;;;;;9.20;2.40;;;;;;;18.23;100.00;101002.94;5084389;28;20028;-65
2022/09/16 09:54:51;;;;;;;11.63;2.30;;;;;;;18.35;100.00;101014.22;5081414;28;20474;-66
2022/09/16 09:57:29;;;;;;;6.60;1.90;;;;;;;17.88;100.00;101017.13;5085017;28;20091;-67
2022/09/16 09:59:59;;;;;;;7.97;1.58;;;;;;;16.90;98.87;101010.28;5081860;28;20494;-66
2022/09/16 10:02:25;;;;;;;6.18;1.42;;;;;;;15.91;100.00;101006.59;5083919;28;20028;-65
2022/09/16 10:04:50;;;;;;;4.10;1.42;;;;;;;15.19;100.00;101016.44;5081125;28;20024;-66
2022/09/16 10:07:21;;;;;;;8.32;1.67;;;;;;;14.63;100.00;101040.06;5084836;28;20101;-66
2022/09/16 10:10:01;;;;;;;9.18;1.85;;;;;;;14.30;100.00;101066.91;5081788;28;20020;-65
2022/09/16 10:12:32;;;;;;;16.10;2.22;;;;;;;13.44;100.00;101067.41;5082591;28;20035;-65
2022/09/16 10:14:59;;;;;;;11.23;2.03;;;;;;;12.59;100.00;101050.75;5083118;28;20025;-67
2022/09/16 10:17:26;;;;;;;12.93;2.00;;;;;;;11.76;100.00;101043.59;5083013;28;20419;-66
2022/09/16 10:19:59;;;;;;;8.63;1.70;;;;;;;11.60;100.00;101032.06;5082075;28;20455;-65
2022/09/16 10:22:28;;;;;;;7.85;1.50;;;;;;;11.55;100.00;101028.50;5082664;28;20111;-65
2022/09/16 10:25:22;;;;;;;8.50;1.58;;;;;;;11.56;100.00;101024.97;5082184;28;20486;-67
2022/09/16 10:28:00;;;;;;;6.75;1.60;;;;;;;11.84;100.00;101021.53;5079065;28;20093;-67
2022/09/16 10:30:27;;;;;;;3.50;1.30;;;;;;;11.96;100.00;101009.22;5082679;28;20020;-66
2022/09/16 10:33:06;;;;;;;4.63;1.40;;;;;;;12.42;100.00;101011.91;5081866;28;20515;-67
2022/09/16 10:35:37;;;;;;;8.38;1.20;;;;;;;12.81;100.00;101011.81;5081748;28;20604;-67
2022/09/16 10:38:12;;;;;;;2.55;1.20;;;;;;;12.79;100.00;101014.50;5083709;28;20025;-67
2022/09/16 10:40:38;;;;;;;4.18;1.17;;;;;;;13.18;100.00;101017.91;5080740;28;20073;-67
2022/09/16 10:43:12;;;;;;;5.85;1.27;;;;;;;13.50;100.00;101024.91;5083753;28;20059;-67
2022/09/16 10:45:45;;;;;;;3.40;1.25;;;;;;;13.52;100.00;101016.91;5081349;28;20028;-67
2022/09/16 10:48:15;;;;;;;8.07;1.50;;;;;;;15.01;100.00;101021.97;5081485;28;20078;-67
2022/09/16 10:51:02;;;;;;;4.35;1.38;;;;;;;18.46;100.00;101022.88;5081084;28;20028;-67
2022/09/16 10:53:32;;;;;;;7.63;1.50;;;;;;;19.52;100.00;101028.00;5081683;28;20032;-67
2022/09/16 10:56:00;;;;;;;7.55;1.55;;;;;;;19.12;100.00;101015.78;5080643;28;20398;-66
2022/09/16 10:58:26;;;;;;;8.43;1.80;;;;;;;17.90;100.00;101018.00;5083928;28;20074;-68
2022/09/16 11:00:57;;;;;;;6.35;1.80;;;;;;;16.42;100.00;101013.78;5082389;28;20463;-68
2022/09/16 11:03:37;;;;;;;5.57;1.80;;;;;;;15.45;100.00;101012.53;5087138;28;20033;-68
2022/09/16 11:06:46;;;;;;;7.82;1.83;;;;;;;15.01;100.00;101013.97;5084387;28;20029;-68
2022/09/16 11:09:19;;;;;;;8.30;2.10;;;;;;;14.62;100.00;101012.59;5085837;28;20094;-64
2022/09/16 11:11:57;;;;;;;9.98;2.00;;;;;;;14.34;100.00;101019.03;5087629;28;20035;-65
2022/09/16 11:14:34;;;;;;;8.75;2.20;;;;;;;14.14;100.00;101025.41;5084212;28;20064;-64
2022/09/16 11:17:10;;;;;;;12.73;2.50;;;;;;;14.10;100.00;101021.88;5084843;28;20445;-64
2022/09/16 11:19:45;;;;;;;11.32;2.38;;;;;;;14.20;100.00;101020.03;5087179;28;20032;-64
2022/09/16 11:22:56;;;;;;;10.88;2.40;;;;;;;14.53;100.00;101009.09;5085751;28;20117;-66
2022/09/16 11:25:46;;;;;;;12.70;2.35;;;;;;;14.89;100.00;101013.19;5021942;28;20389;-66
2022/09/16 11:28:23;;;;;;;10.32;2.00;;;;;;;16.63;100.00;101012.53;5023577;28;20513;-64
2022/09/16 11:31:19;;;;;;;10.57;2.10;;;;;;;18.20;100.00;101019.06;5022514;28;20042;-64
2022/09/16 11:34:10;;;;;;;10.23;2.30;;;;;;;20.40;100.00;101012.75;5023776;28;20093;-66